Time;durP1;ratioP1;P1;durP2;ratioP2;P2;SDS_P1;SDS_P2;PMS_P1;PMS_P2;Temp;Humidity;BMP_temperature;BMP_pressure;BME280_temperature;BME280_humidity;BME280_pressure;Samples;Min_cycle;Max_cycle;Signal;HPM_P1;HPM_P2
2021/05/19 00:01:30;;;;;;;0.98;0.65;;;;;;;30.58;19.24;97618.25;5101898;28;20024;-95
2021/05/19 00:03:56;;;;;;;1.67;0.60;;;;;;;30.63;19.15;97617.56;5105416;28;20055;-96
2021/05/19 00:06:22;;;;;;;1.58;0.80;;;;;;;30.76;19.45;97613.16;5102572;28;20032;-95
2021/05/19 00:08:48;;;;;;;1.40;0.70;;;;;;;30.87;19.23;97612.56;5101858;28;20130;-96
2021/05/19 00:11:14;;;;;;;1.60;0.98;;;;;;;30.86;19.28;97607.38;5103163;28;20032;-96
2021/05/19 00:13:40;;;;;;;1.95;0.80;;;;;;;31.01;18.85;97606.09;5103083;28;20028;-96
2021/05/19 00:16:07;;;;;;;0.75;0.60;;;;;;;30.86;18.86;97613.81;5101935;28;20092;-96
2021/05/19 00:18:36;;;;;;;1.70;0.80;;;;;;;30.61;19.06;97611.63;5105908;28;20052;-96
2021/05/19 00:21:04;;;;;;;2.05;0.55;;;;;;;30.45;19.54;97609.28;5101310;28;20075;-96
2021/05/19 00:23:31;;;;;;;1.02;0.88;;;;;;;30.56;19.27;97610.25;5108435;28;20024;-96
2021/05/19 00:25:57;;;;;;;0.88;0.70;;;;;;;30.62;19.04;97608.28;5110169;28;20081;-96
2021/05/19 00:28:23;;;;;;;0.75;0.60;;;;;;;30.77;18.94;97614.72;5107832;28;20106;-96
2021/05/19 00:30:54;;;;;;;1.05;0.77;;;;;;;30.89;18.52;97610.03;5106371;28;20046;-96
2021/05/19 00:33:20;;;;;;;0.70;0.60;;;;;;;30.93;18.54;97604.94;5105342;28;20036;-96
2021/05/19 00:35:46;;;;;;;1.13;0.60;;;;;;;30.43;18.80;97601.28;5109588;28;20030;-96
2021/05/19 00:38:12;;;;;;;0.50;0.50;;;;;;;30.31;18.99;97593.81;5110810;28;20044;-96
2021/05/19 00:40:39;;;;;;;0.93;0.52;;;;;;;30.32;18.91;97598.19;5102793;28;20051;-96
2021/05/19 00:43:05;;;;;;;1.10;0.70;;;;;;;30.34;18.65;97595.69;5109792;28;20068;-96
2021/05/19 00:45:31;;;;;;;1.00;0.70;;;;;;;30.46;18.59;97599.50;5111114;28;20087;-96
2021/05/19 00:47:58;;;;;;;0.90;0.77;;;;;;;30.57;18.28;97594.78;5112171;28;20044;-96
2021/05/19 00:50:27;;;;;;;1.50;0.95;;;;;;;30.60;18.32;97593.81;5111869;28;20166;-96
2021/05/19 00:52:53;;;;;;;1.38;0.90;;;;;;;30.48;18.71;97592.06;5112873;28;20391;-96
2021/05/19 00:55:20;;;;;;;0.90;0.80;;;;;;;30.25;19.24;97594.97;5113938;28;20096;-96
2021/05/19 00:57:48;;;;;;;1.27;0.68;;;;;;;30.15;18.89;97582.97;5100450;28;20033;-96
2021/05/19 01:00:17;;;;;;;1.20;0.60;;;;;;;29.98;19.22;97582.66;5110285;28;20092;-96
2021/05/19 01:02:43;;;;;;;1.27;0.77;;;;;;;29.40;19.94;97593.81;5108729;28;20082;-96
2021/05/19 01:05:23;;;;;;;1.80;0.90;;;;;;;29.08;19.92;97594.63;5113830;28;20088;-96
2021/05/19 01:10:35;;;;;;;1.25;0.90;;;;;;;29.68;19.38;97598.00;5110393;28;20055;-95
2021/05/19 01:13:01;;;;;;;2.08;0.82;;;;;;;29.86;18.97;97592.22;5105364;28;20032;-96
2021/05/19 01:15:27;;;;;;;1.33;0.73;;;;;;;30.05;18.98;97596.44;5110501;28;20035;-96
2021/05/19 01:17:54;;;;;;;0.77;0.52;;;;;;;30.11;18.85;97590.88;5110265;28;20056;-96
2021/05/19 01:20:20;;;;;;;1.80;0.77;;;;;;;30.14;18.62;97595.56;5111150;28;20039;-96
2021/05/19 01:22:47;;;;;;;1.38;0.75;;;;;;;29.97;18.83;97586.75;5116861;28;20088;-96
2021/05/19 01:25:13;;;;;;;2.33;0.77;;;;;;;29.94;19.18;97593.38;5113823;28;20069;-96
2021/05/19 01:27:39;;;;;;;0.50;0.50;;;;;;;29.87;19.09;97590.94;5113437;28;20076;-96
2021/05/19 01:30:08;;;;;;;1.73;0.80;;;;;;;29.85;18.71;97601.19;5113885;28;20051;-96
2021/05/19 01:32:35;;;;;;;0.75;0.73;;;;;;;29.90;18.58;97600.50;5114832;28;20017;-96
2021/05/19 01:35:01;;;;;;;0.77;0.60;;;;;;;29.98;18.33;97605.31;5116021;28;20048;-96
2021/05/19 01:37:27;;;;;;;1.50;0.80;;;;;;;29.78;18.63;97599.50;5115511;28;20040;-96
2021/05/19 01:39:54;;;;;;;1.02;0.93;;;;;;;29.55;19.10;97610.81;5113094;28;20047;-96
2021/05/19 01:42:20;;;;;;;1.10;0.75;;;;;;;29.63;19.13;97606.38;5111991;28;20020;-95
2021/05/19 01:44:46;;;;;;;1.17;0.70;;;;;;;29.51;18.99;97605.34;5110831;28;20044;-96
2021/05/19 01:47:12;;;;;;;1.10;0.77;;;;;;;29.43;19.31;97613.41;5108477;28;20059;-96
2021/05/19 01:49:41;;;;;;;0.73;0.70;;;;;;;29.39;19.28;97618.47;5111874;28;20532;-96
2021/05/19 01:52:09;;;;;;;1.00;0.63;;;;;;;29.36;18.96;97615.81;5111042;28;20055;-96
2021/05/19 01:54:38;;;;;;;0.95;0.60;;;;;;;29.40;19.00;97619.28;5113926;28;20032;-96
2021/05/19 01:57:07;;;;;;;0.68;0.68;;;;;;;29.42;19.18;97617.53;5115051;28;20028;-96
2021/05/19 01:59:34;;;;;;;1.02;0.60;;;;;;;29.50;18.96;97620.00;5104777;28;20044;-96
2021/05/19 02:02:00;;;;;;;1.80;0.77;;;;;;;29.37;18.91;97626.66;5114402;28;20020;-96
2021/05/19 02:04:27;;;;;;;1.90;0.60;;;;;;;29.13;19.22;97625.03;5113269;28;20056;-96
2021/05/19 02:06:56;;;;;;;0.80;0.70;;;;;;;29.15;19.31;97626.13;5106763;28;20032;-96
2021/05/19 02:09:24;;;;;;;0.73;0.68;;;;;;;29.24;19.09;97623.28;5111957;28;20087;-96
2021/05/19 02:11:51;;;;;;;0.73;0.52;;;;;;;29.43;18.59;97624.72;5111094;28;20047;-96
2021/05/19 02:14:19;;;;;;;0.65;0.60;;;;;;;29.57;18.34;97628.13;5110529;28;20093;-96
2021/05/19 02:16:45;;;;;;;0.85;0.60;;;;;;;29.54;18.66;97623.41;5112063;28;20036;-96
2021/05/19 02:19:13;;;;;;;0.80;0.60;;;;;;;29.55;18.73;97625.75;5109774;28;20503;-96
2021/05/19 02:21:48;;;;;;;1.45;0.75;;;;;;;29.53;18.74;97631.13;5110368;28;20028;-96
2021/05/19 02:24:16;;;;;;;2.42;0.50;;;;;;;29.53;18.54;97624.66;5111209;28;20058;-96
2021/05/19 02:26:42;;;;;;;0.70;0.70;;;;;;;29.46;18.74;97634.31;5112568;28;20083;-96
2021/05/19 02:29:09;;;;;;;0.90;0.50;;;;;;;29.33;19.02;97622.47;5113360;28;20047;-96
2021/05/19 02:31:37;;;;;;;0.85;0.63;;;;;;;28.94;19.16;97627.19;5113228;28;20467;-94
2021/05/19 02:34:04;;;;;;;1.13;0.70;;;;;;;28.73;19.45;97642.31;5112644;28;20035;-96
2021/05/19 02:36:30;;;;;;;0.88;0.55;;;;;;;28.57;19.40;97628.53;5111467;28;20036;-96
2021/05/19 02:38:56;;;;;;;0.55;0.50;;;;;;;28.65;19.30;97635.47;5110082;28;20130;-95
2021/05/19 02:41:23;;;;;;;0.82;0.50;;;;;;;28.90;18.68;97631.44;5096301;28;20110;-96
2021/05/19 02:43:50;;;;;;;0.73;0.60;;;;;;;28.83;18.92;97624.09;5109967;28;20036;-96
2021/05/19 02:46:16;;;;;;;1.67;1.15;;;;;;;28.92;18.83;97631.75;5110487;28;20028;-96
2021/05/19 02:48:43;;;;;;;0.98;0.70;;;;;;;29.11;18.66;97631.19;5111630;28;20057;-96
2021/05/19 02:51:10;;;;;;;1.13;0.70;;;;;;;29.18;18.33;97627.25;5113226;28;20035;-96
2021/05/19 02:53:37;;;;;;;1.20;0.98;;;;;;;29.21;18.36;97629.91;5110837;28;20083;-96
2021/05/19 02:56:04;;;;;;;0.73;0.60;;;;;;;28.97;18.44;97631.88;5110105;28;20036;-96
2021/05/19 02:58:31;;;;;;;0.63;0.63;;;;;;;28.85;18.74;97630.03;5107592;28;20032;-96
2021/05/19 03:00:57;;;;;;;0.80;0.80;;;;;;;28.91;18.51;97633.81;5104150;28;20020;-96
2021/05/19 03:03:24;;;;;;;1.15;1.05;;;;;;;28.79;19.08;97637.63;5104760;28;20032;-96
2021/05/19 03:05:50;;;;;;;1.70;0.98;;;;;;;28.72;18.75;97632.31;5107548;28;20035;-96
2021/05/19 03:08:16;;;;;;;0.77;0.50;;;;;;;28.86;18.67;97631.63;5108262;28;20024;-96
2021/05/19 03:10:42;;;;;;;0.65;0.50;;;;;;;29.03;18.28;97632.81;5106341;28;20024;-96
2021/05/19 03:13:08;;;;;;;0.73;0.63;;;;;;;29.02;18.66;97642.53;5105750;28;20032;-96
2021/05/19 03:15:34;;;;;;;0.98;0.52;;;;;;;29.00;18.58;97642.25;5103118;28;20070;-96
2021/05/19 03:18:00;;;;;;;1.23;0.68;;;;;;;28.87;19.08;97641.66;5096376;28;20150;-96
2021/05/19 03:20:27;;;;;;;0.73;0.50;;;;;;;28.86;19.02;97637.28;5101487;28;20066;-96
2021/05/19 03:22:53;;;;;;;0.82;0.70;;;;;;;28.51;19.13;97636.91;5100161;28;20044;-95
2021/05/19 03:25:20;;;;;;;0.73;0.60;;;;;;;28.51;18.97;97636.09;5099584;28;20491;-95
2021/05/19 03:27:46;;;;;;;1.30;0.50;;;;;;;28.82;18.80;97641.53;5099997;28;20092;-95
2021/05/19 03:30:14;;;;;;;1.15;0.70;;;;;;;29.10;18.83;97640.16;5096042;28;20051;-95
2021/05/19 03:32:42;;;;;;;0.85;0.70;;;;;;;29.19;18.31;97642.97;5102684;28;20032;-95
2021/05/19 03:35:09;;;;;;;1.77;0.65;;;;;;;29.15;18.08;97645.16;5091060;28;20127;-94
2021/05/19 03:37:36;;;;;;;0.90;0.70;;;;;;;29.35;18.26;97651.81;5093235;28;20039;-94
2021/05/19 03:40:05;;;;;;;0.73;0.70;;;;;;;29.47;18.10;97650.03;5091325;28;20103;-93
2021/05/19 03:42:31;;;;;;;0.65;0.45;;;;;;;29.63;17.96;97662.97;5085730;28;20136;-95
2021/05/19 03:44:58;;;;;;;1.05;0.75;;;;;;;29.59;18.14;97668.03;5085782;28;20035;-94
2021/05/19 03:47:24;;;;;;;1.02;0.60;;;;;;;29.88;18.18;97673.81;5080239;28;20062;-94
2021/05/19 03:49:50;;;;;;;0.93;0.60;;;;;;;30.00;18.61;97667.09;5083152;28;20028;-91
2021/05/19 03:52:17;;;;;;;1.27;0.80;;;;;;;30.06;18.88;97674.44;5087515;28;20032;-95
2021/05/19 03:54:44;;;;;;;1.08;0.52;;;;;;;30.61;18.53;97671.91;5086864;28;20039;-93
2021/05/19 03:57:10;;;;;;;0.65;0.65;;;;;;;31.03;18.51;97679.34;5087349;28;20696;-95
2021/05/19 03:59:37;;;;;;;0.77;0.57;;;;;;;31.29;18.43;97686.72;5093305;28;20048;-94
2021/05/19 04:02:03;;;;;;;0.57;0.50;;;;;;;31.12;18.97;97682.84;5092834;28;20035;-95
2021/05/19 04:04:30;;;;;;;0.77;0.60;;;;;;;31.28;18.89;97685.16;5090295;28;20036;-96
2021/05/19 04:06:56;;;;;;;0.52;0.40;;;;;;;31.73;19.12;97695.13;5093149;28;20029;-95
2021/05/19 04:09:22;;;;;;;0.63;0.60;;;;;;;31.81;19.21;97684.13;5090638;28;20044;-95
2021/05/19 04:11:48;;;;;;;1.55;0.80;;;;;;;31.92;19.02;97693.56;5091494;28;20032;-95
2021/05/19 04:14:14;;;;;;;4.68;0.95;;;;;;;32.04;19.65;97694.53;5088970;28;20036;-96
2021/05/19 04:16:40;;;;;;;1.08;1.02;;;;;;;32.14;18.93;97689.47;5084931;28;20070;-96
2021/05/19 04:19:08;;;;;;;1.42;0.88;;;;;;;32.21;19.11;97698.31;5092357;28;20036;-96
2021/05/19 04:21:34;;;;;;;1.33;1.00;;;;;;;32.51;19.26;97691.19;5091774;28;20028;-96
2021/05/19 04:24:00;;;;;;;2.65;1.02;;;;;;;32.85;18.50;97698.00;5093418;28;20050;-96
2021/05/19 04:26:26;;;;;;;1.48;1.02;;;;;;;33.05;18.38;97700.00;5096324;28;20029;-96
2021/05/19 04:28:53;;;;;;;1.95;1.20;;;;;;;32.92;18.45;97708.91;5092149;28;22726;-95
2021/05/19 04:31:20;;;;;;;2.13;1.17;;;;;;;32.94;18.92;97705.56;5093859;28;20518;-95
2021/05/19 04:33:46;;;;;;;2.22;1.52;;;;;;;32.84;18.32;97707.03;5093418;28;20054;-95
2021/05/19 04:36:12;;;;;;;4.68;2.85;;;;;;;32.74;19.40;97692.22;5091097;28;20051;-95
2021/05/19 04:38:39;;;;;;;3.67;2.30;;;;;;;33.03;19.21;97691.19;5091312;28;20056;-96
2021/05/19 04:41:05;;;;;;;3.95;2.17;;;;;;;33.05;19.23;97702.84;5095662;28;20024;-94
2021/05/19 04:43:31;;;;;;;6.47;3.63;;;;;;;33.00;19.29;97698.63;5097615;28;20024;-95
2021/05/19 04:45:59;;;;;;;3.60;2.15;;;;;;;33.07;19.23;97701.03;5097625;28;20031;-96
2021/05/19 04:48:27;;;;;;;2.53;1.63;;;;;;;32.96;19.83;97700.13;5091338;28;20137;-95
2021/05/19 04:50:53;;;;;;;2.65;1.25;;;;;;;33.28;19.84;97705.34;5095787;28;20088;-96
2021/05/19 04:53:19;;;;;;;1.55;1.45;;;;;;;33.71;19.47;97711.09;5092629;28;20078;-96
2021/05/19 04:55:46;;;;;;;1.98;1.30;;;;;;;33.77;18.68;97700.53;5092439;28;20099;-94
2021/05/19 04:58:12;;;;;;;4.32;2.55;;;;;;;33.24;18.97;97707.66;5085949;28;20127;-93
2021/05/19 05:00:38;;;;;;;1.90;1.73;;;;;;;32.65;20.07;97713.03;5086266;28;20491;-93
2021/05/19 05:03:11;;;;;;;4.22;1.80;;;;;;;32.38;19.92;97715.56;5077406;28;20039;-91
2021/05/19 05:05:37;;;;;;;3.95;2.00;;;;;;;32.21;19.83;97711.78;5090381;28;20036;-91
2021/05/19 05:08:04;;;;;;;2.10;1.90;;;;;;;32.34;19.81;97712.97;5093805;28;20115;-89
2021/05/19 05:10:30;;;;;;;1.98;1.65;;;;;;;31.91;20.72;97717.56;5089401;28;20488;-91
2021/05/19 05:12:56;;;;;;;2.10;1.60;;;;;;;31.12;21.65;97718.94;5093887;28;20032;-92
2021/05/19 05:15:22;;;;;;;2.03;1.58;;;;;;;31.60;21.21;97722.28;5093858;28;20028;-93
2021/05/19 05:17:49;;;;;;;2.47;1.67;;;;;;;30.88;21.80;97721.09;5094743;28;20051;-93
2021/05/19 05:20:15;;;;;;;4.60;1.73;;;;;;;30.06;21.90;97727.44;5094888;28;20093;-92
2021/05/19 05:22:41;;;;;;;3.35;2.42;;;;;;;29.66;22.87;97719.38;5094793;28;20042;-92
2021/05/19 05:25:08;;;;;;;3.30;2.90;;;;;;;29.21;23.30;97723.22;5094334;28;20135;-92
2021/05/19 05:27:35;;;;;;;2.67;2.47;;;;;;;27.85;24.95;97723.31;5094284;28;20040;-91
2021/05/19 05:30:01;;;;;;;3.17;2.53;;;;;;;28.17;24.76;97729.66;5092570;28;20157;-91
2021/05/19 05:32:27;;;;;;;3.28;2.40;;;;;;;28.42;24.28;97720.84;5090326;28;20028;-90
2021/05/19 05:34:53;;;;;;;3.55;3.00;;;;;;;27.50;25.44;97726.84;5084419;28;20115;-92
2021/05/19 05:37:21;;;;;;;4.95;4.03;;;;;;;27.83;25.17;97733.50;5093099;28;20395;-92
2021/05/19 05:39:47;;;;;;;5.03;4.32;;;;;;;26.36;27.24;97741.72;5095302;28;20103;-91
2021/05/19 05:42:13;;;;;;;4.80;4.28;;;;;;;26.10;27.23;97751.50;5089335;28;20039;-93
2021/05/19 05:44:39;;;;;;;6.38;5.07;;;;;;;25.56;28.55;97748.09;5095567;28;20024;-91
2021/05/19 05:47:05;;;;;;;7.97;6.18;;;;;;;26.96;26.51;97749.94;5080360;28;20040;-91
2021/05/19 05:49:32;;;;;;;5.90;4.80;;;;;;;27.29;25.76;97748.22;5082257;28;20111;-92
2021/05/19 05:51:58;;;;;;;7.93;5.82;;;;;;;26.05;27.27;97760.47;5094041;28;20040;-90
2021/05/19 05:54:24;;;;;;;9.07;6.30;;;;;;;25.45;28.50;97775.78;5083309;28;20484;-92
2021/05/19 05:56:50;;;;;;;9.27;7.38;;;;;;;26.11;27.22;97775.59;5092923;28;20028;-91
2021/05/19 05:59:16;;;;;;;8.82;7.28;;;;;;;26.75;26.34;97776.88;5092888;28;20024;-92
2021/05/19 06:01:42;;;;;;;12.00;7.93;;;;;;;26.86;26.09;97782.13;5086203;28;20024;-90
2021/05/19 06:04:08;;;;;;;9.45;7.40;;;;;;;26.93;26.17;97781.88;5093446;28;20028;-92
2021/05/19 06:06:34;;;;;;;12.38;8.68;;;;;;;27.69;25.37;97774.41;5094574;28;20081;-91
2021/05/19 06:09:00;;;;;;;15.32;11.00;;;;;;;28.78;24.08;97757.56;5094538;28;20036;-91
2021/05/19 06:11:27;;;;;;;11.27;8.75;;;;;;;29.41;23.54;97773.56;5094846;28;20081;-91
2021/05/19 06:13:53;;;;;;;15.00;9.65;;;;;;;29.66;22.71;97769.53;5094782;28;20028;-91
2021/05/19 06:16:19;;;;;;;13.90;10.27;;;;;;;29.77;23.77;97766.97;5094562;28;20480;-91
2021/05/19 06:18:45;;;;;;;12.25;9.32;;;;;;;30.07;22.98;97763.78;5094788;28;20535;-91
2021/05/19 06:21:11;;;;;;;9.30;7.35;;;;;;;29.52;22.37;97765.38;5090161;28;20036;-90
2021/05/19 06:23:37;;;;;;;12.88;8.88;;;;;;;29.52;23.05;97758.91;5094227;28;20035;-90
2021/05/19 06:26:04;;;;;;;9.20;7.15;;;;;;;29.40;23.16;97763.53;5093166;28;20044;-91
2021/05/19 06:28:30;;;;;;;9.50;6.75;;;;;;;30.42;22.71;97751.91;5094517;28;20379;-91
2021/05/19 06:30:56;;;;;;;12.25;8.80;;;;;;;30.26;22.01;97755.94;5091436;28;20050;-90
2021/05/19 06:33:22;;;;;;;12.02;8.10;;;;;;;29.99;22.12;97761.81;5076490;28;20032;-91
2021/05/19 06:35:48;;;;;;;9.75;7.45;;;;;;;31.17;21.23;97753.06;5094650;28;20032;-92
2021/05/19 06:38:14;;;;;;;10.45;7.45;;;;;;;31.20;21.10;97754.13;5088572;28;20032;-91
2021/05/19 06:40:40;;;;;;;11.80;7.47;;;;;;;31.26;21.14;97752.16;5084725;28;20074;-91
2021/05/19 06:43:07;;;;;;;7.45;6.18;;;;;;;30.85;21.84;97747.56;5094379;28;20028;-91
2021/05/19 06:45:34;;;;;;;8.02;6.05;;;;;;;31.07;20.97;97743.09;5081795;28;20033;-89
2021/05/19 06:48:00;;;;;;;5.93;5.20;;;;;;;30.31;21.74;97749.63;5087195;28;20044;-91
2021/05/19 06:50:26;;;;;;;5.20;4.70;;;;;;;30.99;21.70;97752.50;5091761;28;20105;-91
2021/05/19 06:52:53;;;;;;;5.53;4.00;;;;;;;31.72;21.38;97760.91;5093826;28;20020;-91
2021/05/19 06:55:19;;;;;;;6.18;5.15;;;;;;;31.52;20.09;97747.47;5092963;28;20109;-90
2021/05/19 06:57:45;;;;;;;5.57;3.85;;;;;;;31.24;20.93;97749.84;5081032;28;20029;-90
2021/05/19 07:00:12;;;;;;;5.60;4.95;;;;;;;31.21;21.21;97747.97;5073938;28;20055;-89
2021/05/19 07:02:38;;;;;;;4.95;3.63;;;;;;;29.76;22.49;97746.38;5073984;28;20410;-90
2021/05/19 07:05:07;;;;;;;6.10;5.32;;;;;;;30.14;22.28;97745.66;5087354;28;20119;-90
2021/05/19 07:07:33;;;;;;;5.85;3.85;;;;;;;30.74;21.91;97740.41;5092898;28;20553;-90
2021/05/19 07:09:59;;;;;;;5.50;4.10;;;;;;;31.26;20.98;97743.66;5093204;28;20036;-91
2021/05/19 07:12:25;;;;;;;5.45;4.32;;;;;;;31.14;21.30;97744.75;5093266;28;20093;-91
2021/05/19 07:14:57;;;;;;;5.60;3.88;;;;;;;29.77;22.25;97742.28;5093939;28;20020;-91
2021/05/19 07:17:23;;;;;;;3.95;3.53;;;;;;;30.20;22.93;97735.22;5093715;28;20056;-90
2021/05/19 07:19:49;;;;;;;4.53;3.38;;;;;;;29.23;24.12;97754.63;5093971;28;20032;-93
2021/05/19 07:22:15;;;;;;;5.32;3.92;;;;;;;30.59;22.35;97747.34;5089594;28;20407;-91
2021/05/19 07:24:42;;;;;;;5.93;4.43;;;;;;;30.58;22.55;97754.28;5090203;28;20043;-90
2021/05/19 07:27:08;;;;;;;3.72;3.35;;;;;;;29.31;23.81;97744.53;5089989;28;20035;-91
2021/05/19 07:29:34;;;;;;;4.53;4.10;;;;;;;29.34;24.37;97760.56;5093799;28;20391;-91
2021/05/19 07:32:00;;;;;;;3.13;2.83;;;;;;;29.16;24.17;97742.84;5093589;28;20070;-90
2021/05/19 07:34:26;;;;;;;3.97;3.58;;;;;;;28.69;24.38;97749.09;5093506;28;20024;-92
2021/05/19 07:36:53;;;;;;;3.35;3.05;;;;;;;28.24;24.56;97763.22;5091940;28;20032;-92
2021/05/19 07:39:19;;;;;;;5.03;3.53;;;;;;;29.05;24.69;97757.50;5093460;28;20426;-92
2021/05/19 07:41:46;;;;;;;6.57;3.75;;;;;;;28.15;25.28;97763.19;5092486;28;20368;-92
2021/05/19 07:44:12;;;;;;;4.35;3.95;;;;;;;27.77;26.69;97772.81;5081516;28;20028;-90
2021/05/19 07:46:39;;;;;;;4.95;3.42;;;;;;;27.91;25.94;97769.41;5087736;28;20137;-94
2021/05/19 07:49:06;;;;;;;5.38;4.78;;;;;;;27.49;26.76;97765.56;5093265;28;20178;-92
2021/05/19 07:51:32;;;;;;;5.57;4.68;;;;;;;27.74;27.12;97756.84;5091706;28;20090;-90
2021/05/19 07:53:59;;;;;;;5.90;4.68;;;;;;;28.61;26.19;97768.41;5083930;28;20032;-91
2021/05/19 07:56:34;;;;;;;6.30;5.25;;;;;;;28.33;25.66;97766.06;5083139;28;20020;-90
2021/05/19 07:59:10;;;;;;;5.28;4.43;;;;;;;28.72;24.94;97771.53;5086515;28;20028;-93
2021/05/19 08:04:06;;;;;;;5.05;4.22;;;;;;;28.70;24.43;97774.06;5090672;28;20032;-92
2021/05/19 08:06:33;;;;;;;6.38;5.00;;;;;;;29.54;24.37;97767.69;5097220;28;20032;-91
2021/05/19 08:08:59;;;;;;;5.97;4.32;;;;;;;28.12;26.06;97773.41;5097084;28;20435;-93
2021/05/19 08:11:25;;;;;;;5.68;4.38;;;;;;;28.62;25.00;97766.38;5097113;28;20047;-91
2021/05/19 08:13:51;;;;;;;6.18;4.85;;;;;;;28.22;25.79;97777.00;5095692;28;20051;-92
2021/05/19 08:16:17;;;;;;;6.65;4.63;;;;;;;28.32;26.07;97765.25;5095385;28;20460;-91
2021/05/19 08:18:44;;;;;;;5.43;4.82;;;;;;;28.83;25.10;97756.91;5080842;28;20123;-90
2021/05/19 08:21:10;;;;;;;6.90;4.10;;;;;;;27.93;26.43;97760.50;5096595;28;20032;-92
2021/05/19 08:23:37;;;;;;;4.82;4.25;;;;;;;29.09;24.54;97752.44;5096363;28;20036;-90
2021/05/19 08:26:05;;;;;;;3.97;3.50;;;;;;;28.43;25.03;97762.75;5096279;28;20063;-93
2021/05/19 08:28:35;;;;;;;4.38;3.95;;;;;;;27.91;25.65;97763.78;5096440;28;20038;-92
2021/05/19 08:31:03;;;;;;;4.88;4.40;;;;;;;29.02;24.23;97744.31;5096327;28;20036;-92
2021/05/19 08:33:29;;;;;;;3.75;3.28;;;;;;;29.87;23.65;97754.34;5095868;28;20036;-91
2021/05/19 08:35:55;;;;;;;3.13;2.80;;;;;;;29.35;23.22;97764.97;5095485;28;20060;-92
2021/05/19 08:38:21;;;;;;;3.78;2.97;;;;;;;28.31;24.44;97755.22;5096288;28;20028;-93
2021/05/19 08:40:48;;;;;;;6.20;2.80;;;;;;;28.15;24.46;97757.56;5096447;28;20032;-91
2021/05/19 08:43:15;;;;;;;2.67;2.47;;;;;;;27.78;25.89;97760.31;5083649;28;20036;-91
2021/05/19 08:45:41;;;;;;;3.58;2.65;;;;;;;28.30;24.77;97764.16;5079503;28;20028;-93
2021/05/19 08:48:08;;;;;;;3.20;2.85;;;;;;;28.10;25.19;97764.59;5076909;28;20029;-94
2021/05/19 08:50:36;;;;;;;3.97;2.60;;;;;;;27.67;24.79;97759.97;5089782;28;20518;-93
2021/05/19 08:53:10;;;;;;;2.30;2.10;;;;;;;29.23;23.86;97748.19;5096373;28;20476;-92
2021/05/19 08:55:37;;;;;;;3.15;1.90;;;;;;;29.22;23.44;97749.47;5094549;28;20028;-93
2021/05/19 08:58:03;;;;;;;4.10;2.10;;;;;;;28.83;23.02;97759.75;5094850;28;20067;-94
2021/05/19 09:00:31;;;;;;;2.55;1.77;;;;;;;29.46;22.86;97763.63;5096807;28;20062;-94
2021/05/19 09:03:23;;;;;;;2.10;1.67;;;;;;;29.10;22.49;97758.91;5094301;28;20499;-96
2021/05/19 09:05:50;;;;;;;2.45;2.03;;;;;;;29.79;22.58;97755.97;5084626;28;20040;-92
2021/05/19 09:08:20;;;;;;;2.40;2.00;;;;;;;29.41;22.94;97748.91;5086869;28;20036;-95
2021/05/19 09:11:04;;;;;;;2.20;1.85;;;;;;;29.06;22.68;97769.56;5089540;28;20027;-95
2021/05/19 09:13:44;;;;;;;1.90;1.70;;;;;;;28.66;23.15;97756.47;5076234;28;20036;-93
2021/05/19 09:16:14;;;;;;;2.05;1.55;;;;;;;29.91;21.98;97755.72;5084072;28;20039;-93
2021/05/19 09:18:47;;;;;;;2.35;1.83;;;;;;;30.88;21.37;97750.22;5087644;28;20037;-94
2021/05/19 09:21:37;;;;;;;2.00;1.58;;;;;;;31.35;20.38;97750.00;5075864;28;20033;-92
2021/05/19 09:24:22;;;;;;;1.80;1.23;;;;;;;30.99;21.55;97749.66;5083378;28;20439;-92
2021/05/19 09:26:55;;;;;;;1.52;1.10;;;;;;;30.73;21.19;97749.41;5082039;28;20118;-91
2021/05/19 09:29:23;;;;;;;1.50;1.35;;;;;;;29.80;22.41;97757.53;5095900;28;20131;-92
2021/05/19 09:31:55;;;;;;;1.33;1.23;;;;;;;28.60;23.02;97758.38;5094076;28;20036;-92
2021/05/19 09:34:32;;;;;;;1.60;1.35;;;;;;;29.25;22.41;97749.28;5095737;28;20438;-92
2021/05/19 09:37:19;;;;;;;1.83;1.52;;;;;;;29.26;21.51;97747.25;5094081;28;20024;-92
2021/05/19 09:39:55;;;;;;;1.42;1.33;;;;;;;30.40;20.94;97738.22;5090261;28;20035;-91
2021/05/19 09:42:24;;;;;;;2.30;1.55;;;;;;;30.96;21.04;97739.28;5093046;28;20028;-92
2021/05/19 09:44:52;;;;;;;1.20;1.10;;;;;;;29.48;21.38;97750.59;5094381;28;20122;-91
2021/05/19 09:47:41;;;;;;;1.20;1.10;;;;;;;29.00;22.44;97746.84;5092966;28;20032;-91
2021/05/19 09:50:09;;;;;;;2.28;1.55;;;;;;;28.70;22.51;97745.03;5094827;28;20058;-94
2021/05/19 09:52:35;;;;;;;1.20;1.10;;;;;;;28.39;24.08;97745.19;5095997;28;20024;-93
2021/05/19 09:55:04;;;;;;;1.60;1.45;;;;;;;27.89;24.09;97740.13;5094978;28;20495;-93
2021/05/19 09:57:42;;;;;;;2.03;1.75;;;;;;;28.09;23.70;97734.81;5095308;28;20052;-96
2021/05/19 10:00:09;;;;;;;2.13;1.48;;;;;;;27.30;25.66;97730.06;5095699;28;20058;-93
2021/05/19 10:02:36;;;;;;;1.65;1.50;;;;;;;28.17;24.19;97738.13;5095831;28;20036;-89
2021/05/19 10:05:10;;;;;;;2.83;2.30;;;;;;;27.83;24.24;97725.84;5093639;28;20035;-90
2021/05/19 10:07:38;;;;;;;2.60;2.40;;;;;;;25.98;25.80;97712.91;5094689;28;20089;-90
2021/05/19 10:10:05;;;;;;;3.72;2.42;;;;;;;26.26;26.38;97719.56;5092250;28;20040;-89
2021/05/19 10:12:32;;;;;;;2.63;2.05;;;;;;;25.37;27.98;97713.34;5094712;28;20028;-91
2021/05/19 10:15:03;;;;;;;2.42;2.22;;;;;;;25.20;27.82;97711.94;5092059;28;20020;-89
2021/05/19 10:17:30;;;;;;;2.72;1.83;;;;;;;27.36;23.46;97716.91;5093742;28;20503;-89
2021/05/19 10:20:00;;;;;;;2.08;1.60;;;;;;;29.52;21.21;97713.66;5093844;28;20036;-88
2021/05/19 10:22:28;;;;;;;1.10;0.97;;;;;;;30.28;20.64;97715.78;5093447;28;20483;-89
2021/05/19 10:25:15;;;;;;;1.65;1.50;;;;;;;30.83;18.89;97716.09;5090908;28;20052;-89
2021/05/19 10:27:49;;;;;;;1.23;1.13;;;;;;;30.26;19.45;97724.00;5094773;28;20429;-90
2021/05/19 10:30:35;;;;;;;1.83;1.20;;;;;;;29.57;20.50;97715.81;5093738;28;20051;-89
2021/05/19 10:33:02;;;;;;;1.30;1.20;;;;;;;31.35;18.88;97707.44;5093576;28;20062;-88
2021/05/19 10:35:34;;;;;;;1.55;1.42;;;;;;;31.68;18.88;97718.53;5093319;28;20107;-90
2021/05/19 10:38:25;;;;;;;1.33;1.10;;;;;;;30.63;19.05;97703.38;5090955;28;20131;-89
2021/05/19 10:40:56;;;;;;;1.80;1.25;;;;;;;31.47;19.55;97705.59;5092611;28;20028;-88
2021/05/19 10:43:42;;;;;;;1.38;1.27;;;;;;;29.36;20.77;97723.28;5087535;28;20107;-89
2021/05/19 10:46:08;;;;;;;2.58;2.17;;;;;;;28.76;22.31;97712.03;5083419;28;20036;-89
2021/05/19 10:48:35;;;;;;;2.50;2.30;;;;;;;26.44;24.92;97722.53;5093899;28;20044;-90
2021/05/19 10:51:32;;;;;;;2.53;2.03;;;;;;;28.14;22.39;97716.47;5091820;28;20047;-89
2021/05/19 11:00:11;;;;;;;2.17;1.67;;;;;;;26.90;23.37;97718.78;5093045;28;20047;-90
2021/05/19 11:02:59;;;;;;;2.08;1.92;;;;;;;26.48;24.92;97723.19;5093451;28;20064;-90
2021/05/19 11:05:34;;;;;;;2.72;2.00;;;;;;;26.96;25.24;97716.91;5087054;28;20047;-89
2021/05/19 11:08:30;;;;;;;2.05;1.85;;;;;;;30.26;19.38;97702.13;5093533;28;20093;-90
2021/05/19 11:11:27;;;;;;;1.33;1.23;;;;;;;32.47;18.90;97709.72;5086868;28;20056;-90
2021/05/19 11:13:59;;;;;;;2.13;1.55;;;;;;;32.35;18.21;97710.91;5077372;28;20028;-90
2021/05/19 11:16:40;;;;;;;1.27;1.05;;;;;;;33.20;16.38;97709.97;5093590;28;20032;-88
2021/05/19 11:19:11;;;;;;;2.08;1.20;;;;;;;32.41;18.02;97714.56;5093785;28;20036;-90
2021/05/19 11:21:37;;;;;;;1.67;1.13;;;;;;;30.85;19.09;97713.53;5093982;28;20036;-90
2021/05/19 11:24:10;;;;;;;3.58;1.20;;;;;;;29.59;21.35;97705.59;5092575;28;20495;-90
2021/05/19 11:26:46;;;;;;;1.88;1.30;;;;;;;30.88;19.02;97709.75;5092540;28;20027;-90
2021/05/19 11:29:15;;;;;;;1.40;1.30;;;;;;;29.71;21.52;97709.44;5092300;28;20483;-91
2021/05/19 11:31:47;;;;;;;1.40;1.30;;;;;;;30.18;20.00;97697.34;5093505;28;20418;-90
2021/05/19 11:34:15;;;;;;;1.23;0.93;;;;;;;31.09;18.81;97703.66;5093037;28;20036;-89
2021/05/19 11:36:45;;;;;;;1.65;1.30;;;;;;;31.34;18.47;97705.88;5092990;28;20028;-89
2021/05/19 11:39:39;;;;;;;1.10;1.00;;;;;;;29.93;19.64;97702.25;5077386;28;20040;-89
2021/05/19 11:42:21;;;;;;;1.85;1.23;;;;;;;26.81;23.41;97710.28;5088816;28;20051;-88
2021/05/19 11:44:56;;;;;;;1.23;1.13;;;;;;;27.42;24.93;97707.41;5085272;28;20043;-88
2021/05/19 11:47:28;;;;;;;1.73;1.08;;;;;;;29.49;21.75;97698.41;5091463;28;20029;-89
2021/05/19 11:50:33;;;;;;;1.02;0.77;;;;;;;29.32;20.29;97700.06;5090973;28;20051;-88
2021/05/19 11:53:09;;;;;;;1.23;1.02;;;;;;;30.76;19.18;97698.19;5028556;28;20038;-88